Time;durP1;ratioP1;P1;durP2;ratioP2;P2;SDS_P1;SDS_P2;PMS_P1;PMS_P2;Temp;Humidity;BMP_temperature;BMP_pressure;BME280_temperature;BME280_humidity;BME280_pressure;Samples;Min_cycle;Max_cycle;Signal;HPM_P1;HPM_P2
2022/03/08 00:01:17;;;;;;;;;;;;;;;-1.96;74.69;101491.50;5119034;28;1616;-85
2022/03/08 00:03:42;;;;;;;;;;;;;;;-2.03;74.79;101477.94;5101093;28;1961;-85
2022/03/08 00:06:08;;;;;;;;;;;;;;;-2.01;74.95;101462.50;5101849;28;1038;-84
2022/03/08 00:08:34;;;;;;;;;;;;;;;-1.78;74.88;101473.28;5101789;28;1356;-85
2022/03/08 00:10:59;;;;;;;;;;;;;;;-1.72;74.39;101466.38;5101645;28;1230;-85
2022/03/08 00:13:25;;;;;;;;;;;;;;;-1.96;74.50;101464.69;5118141;28;1337;-85
2022/03/08 00:15:50;;;;;;;;;;;;;;;-2.13;74.43;101457.72;5088467;28;1461;-84
2022/03/08 00:18:17;;;;;;;;;;;;;;;-1.97;74.77;101453.09;5097287;28;1798;-88
2022/03/08 00:20:42;;;;;;;;;;;;;;;-1.88;74.81;101450.38;5100955;28;1208;-85
2022/03/08 00:23:07;;;;;;;;;;;;;;;-2.02;74.59;101452.78;5100357;28;1957;-85
2022/03/08 00:25:32;;;;;;;;;;;;;;;-2.12;75.14;101446.78;5101178;28;1560;-86
2022/03/08 00:27:57;;;;;;;;;;;;;;;-2.10;75.08;101452.81;5119513;28;1290;-85
2022/03/08 00:30:24;;;;;;;;;;;;;;;-2.07;74.96;101452.47;5100411;28;1288;-86
2022/03/08 00:32:50;;;;;;;;;;;;;;;-2.09;74.59;101449.13;5113855;28;1752;-85
2022/03/08 00:35:16;;;;;;;;;;;;;;;-2.22;74.90;101456.91;5117585;28;1186;-85
2022/03/08 00:37:41;;;;;;;;;;;;;;;-2.21;75.26;101455.06;5099832;28;1461;-85
2022/03/08 00:40:07;;;;;;;;;;;;;;;-2.31;75.31;101450.75;5119620;28;927;-85
2022/03/08 00:42:32;;;;;;;;;;;;;;;-2.26;75.08;101447.53;5118737;28;1910;-85
2022/03/08 00:44:57;;;;;;;;;;;;;;;-2.21;75.16;101439.78;5101008;28;1290;-86
2022/03/08 00:47:22;;;;;;;;;;;;;;;-2.14;75.47;101435.41;5118153;28;1192;-84
2022/03/08 00:49:47;;;;;;;;;;;;;;;-2.03;75.40;101436.84;5121116;28;895;-86
2022/03/08 00:52:13;;;;;;;;;;;;;;;-1.98;75.17;101439.88;5102066;28;1485;-84
2022/03/08 00:54:38;;;;;;;;;;;;;;;-2.15;75.05;101439.09;5121141;28;1026;-86
2022/03/08 00:57:04;;;;;;;;;;;;;;;-2.32;75.12;101430.31;5103210;28;1614;-86
2022/03/08 00:59:29;;;;;;;;;;;;;;;-2.28;75.27;101434.28;5103740;28;1139;-87
2022/03/08 01:01:54;;;;;;;;;;;;;;;-2.29;75.24;101434.47;5104624;28;1148;-87
2022/03/08 01:04:19;;;;;;;;;;;;;;;-2.22;75.30;101438.13;5123998;28;1937;-88
2022/03/08 01:06:44;;;;;;;;;;;;;;;-2.32;75.18;101440.19;5123018;28;1613;-86
2022/03/08 01:09:10;;;;;;;;;;;;;;;-2.29;75.50;101432.63;5124979;28;1710;-86
2022/03/08 01:11:36;;;;;;;;;;;;;;;-2.28;75.68;101422.72;5123395;28;1731;-87
2022/03/08 01:14:02;;;;;;;;;;;;;;;-2.38;75.44;101422.09;5106197;28;1222;-86
2022/03/08 01:16:27;;;;;;;;;;;;;;;-2.42;75.73;101413.56;5108185;28;1755;-87
2022/03/08 01:18:52;;;;;;;;;;;;;;;-2.24;75.69;101413.34;5122706;28;1454;-86
2022/03/08 01:21:18;;;;;;;;;;;;;;;-2.49;75.25;101419.81;5092560;28;1552;-87
2022/03/08 01:23:43;;;;;;;;;;;;;;;-2.47;76.13;101428.53;5094207;28;1894;-87
2022/03/08 01:26:08;;;;;;;;;;;;;;;-2.35;76.06;101429.78;5110540;28;1419;-87
2022/03/08 01:28:34;;;;;;;;;;;;;;;-2.39;76.07;101431.16;5114700;28;1704;-85
2022/03/08 01:30:59;;;;;;;;;;;;;;;-2.35;75.73;101433.31;5116271;28;1107;-85
2022/03/08 01:33:24;;;;;;;;;;;;;;;-2.62;75.68;101433.75;5118950;28;1480;-86
2022/03/08 01:35:49;;;;;;;;;;;;;;;-2.65;76.10;101435.94;5103077;28;1304;-85
2022/03/08 01:38:14;;;;;;;;;;;;;;;-2.53;76.01;101421.16;5102602;28;1228;-85
2022/03/08 01:40:41;;;;;;;;;;;;;;;-2.45;76.10;101421.97;5121532;28;904;-84
2022/03/08 01:43:06;;;;;;;;;;;;;;;-2.43;76.02;101419.09;5097938;28;1968;-85
2022/03/08 01:45:33;;;;;;;;;;;;;;;-2.43;76.28;101416.44;5103968;28;1324;-85
2022/03/08 01:47:58;;;;;;;;;;;;;;;-2.40;76.04;101413.41;5103525;28;1354;-85
2022/03/08 01:50:23;;;;;;;;;;;;;;;-2.47;75.75;101413.28;5120513;28;1406;-86
2022/03/08 01:52:49;;;;;;;;;;;;;;;-2.50;75.59;101410.09;5103010;28;1289;-84
2022/03/08 01:55:15;;;;;;;;;;;;;;;-2.61;76.11;101410.44;5102994;28;1660;-84
2022/03/08 01:57:40;;;;;;;;;;;;;;;-2.69;76.05;101414.00;5103499;28;1311;-85
2022/03/08 02:00:07;;;;;;;;;;;;;;;-2.72;75.81;101411.66;5103265;28;1171;-85
2022/03/08 02:02:32;;;;;;;;;;;;;;;-2.67;76.29;101414.66;5103541;28;1954;-84
2022/03/08 02:04:57;;;;;;;;;;;;;;;-2.67;76.01;101420.03;5120895;28;1523;-85
2022/03/08 02:07:24;;;;;;;;;;;;;;;-2.64;75.87;101416.19;5103383;28;1219;-85
2022/03/08 02:09:49;;;;;;;;;;;;;;;-2.74;76.22;101416.38;5102330;28;1784;-86
2022/03/08 02:12:14;;;;;;;;;;;;;;;-2.60;76.33;101409.44;5121492;28;1791;-85
2022/03/08 02:14:40;;;;;;;;;;;;;;;-2.50;76.25;101399.38;5103399;28;1313;-86
2022/03/08 02:17:06;;;;;;;;;;;;;;;-2.48;76.07;101392.00;5102992;28;1800;-86
2022/03/08 02:19:31;;;;;;;;;;;;;;;-2.50;76.24;101394.84;5102389;28;1412;-85
2022/03/08 02:21:57;;;;;;;;;;;;;;;-2.50;76.34;101388.66;5122551;28;958;-85
2022/03/08 02:24:22;;;;;;;;;;;;;;;-2.72;76.64;101393.72;5102966;28;1885;-85
2022/03/08 02:26:48;;;;;;;;;;;;;;;-2.65;76.83;101398.44;5103213;28;1371;-85
2022/03/08 02:29:13;;;;;;;;;;;;;;;-2.75;76.65;101385.22;5103523;28;1300;-85
2022/03/08 02:31:38;;;;;;;;;;;;;;;-3.01;77.18;101381.94;5104071;28;1161;-86
2022/03/08 02:34:04;;;;;;;;;;;;;;;-3.10;77.12;101373.09;5121060;28;1504;-85
2022/03/08 02:36:29;;;;;;;;;;;;;;;-3.01;77.34;101374.75;5103306;28;1205;-85
2022/03/08 02:38:54;;;;;;;;;;;;;;;-2.91;76.61;101378.06;5102786;28;1271;-85
2022/03/08 02:41:19;;;;;;;;;;;;;;;-3.01;76.98;101371.22;5103115;28;1843;-85
2022/03/08 02:43:44;;;;;;;;;;;;;;;-3.15;76.97;101376.25;5102804;28;1898;-85
2022/03/08 02:46:10;;;;;;;;;;;;;;;-2.95;77.19;101375.88;5102776;28;1023;-85
2022/03/08 02:48:35;;;;;;;;;;;;;;;-2.84;77.05;101379.06;5103313;28;2005;-85
2022/03/08 02:51:00;;;;;;;;;;;;;;;-3.12;76.73;101383.13;5103704;28;1195;-86
2022/03/08 02:53:26;;;;;;;;;;;;;;;-3.25;77.09;101380.13;5108876;28;1308;-86
2022/03/08 02:55:51;;;;;;;;;;;;;;;-3.27;77.47;101382.97;5099681;28;1139;-85
2022/03/08 02:58:16;;;;;;;;;;;;;;;-3.09;77.14;101382.78;5103248;28;1917;-85
2022/03/08 03:00:41;;;;;;;;;;;;;;;-3.02;77.27;101378.41;5103948;28;1344;-85
2022/03/08 03:03:07;;;;;;;;;;;;;;;-3.00;77.23;101384.44;5100572;28;1932;-87
2022/03/08 03:05:33;;;;;;;;;;;;;;;-3.01;77.24;101376.59;5109193;28;1481;-86
2022/03/08 03:07:58;;;;;;;;;;;;;;;-3.08;77.35;101371.06;5104616;28;1586;-85
2022/03/08 03:10:24;;;;;;;;;;;;;;;-3.24;77.36;101363.91;5104818;28;1201;-85
2022/03/08 03:12:49;;;;;;;;;;;;;;;-3.21;77.39;101363.56;5102094;28;1747;-86
2022/03/08 03:15:15;;;;;;;;;;;;;;;-3.15;77.37;101362.88;5104692;28;1563;-87
2022/03/08 03:17:40;;;;;;;;;;;;;;;-3.19;77.70;101368.75;5104499;28;1744;-85
2022/03/08 03:20:07;;;;;;;;;;;;;;;-3.22;77.61;101358.38;5122429;28;1660;-85
2022/03/08 03:22:32;;;;;;;;;;;;;;;-3.18;77.64;101360.53;5107599;28;1947;-85
2022/03/08 03:24:57;;;;;;;;;;;;;;;-3.25;77.57;101366.75;5122828;28;1648;-86
2022/03/08 03:27:22;;;;;;;;;;;;;;;-3.15;77.50;101370.09;5123603;28;1352;-85
2022/03/08 03:29:48;;;;;;;;;;;;;;;-3.17;77.51;101366.75;5107459;28;1047;-86
2022/03/08 03:32:13;;;;;;;;;;;;;;;-3.24;77.43;101363.06;5108417;28;1383;-86
2022/03/08 03:34:38;;;;;;;;;;;;;;;-3.29;77.61;101357.38;5128108;28;1012;-87
2022/03/08 03:37:03;;;;;;;;;;;;;;;-3.25;77.48;101366.75;5146728;22;2193;-84
2022/03/08 03:39:29;;;;;;;;;;;;;;;-3.25;77.61;101364.09;5090906;28;1614;-82
2022/03/08 03:41:54;;;;;;;;;;;;;;;-3.38;77.74;101369.94;5077754;28;1217;-82
2022/03/08 03:44:19;;;;;;;;;;;;;;;-3.35;78.19;101377.63;5082489;28;1901;-82
2022/03/08 03:46:44;;;;;;;;;;;;;;;-3.23;77.92;101368.25;5081435;28;1712;-81
2022/03/08 03:49:09;;;;;;;;;;;;;;;-3.16;77.83;101373.78;5078690;28;1228;-82
2022/03/08 03:51:34;;;;;;;;;;;;;;;-3.17;77.67;101372.94;5064955;28;1654;-82
2022/03/08 03:53:59;;;;;;;;;;;;;;;-3.34;77.78;101373.13;5099964;28;1014;-83
2022/03/08 03:56:25;;;;;;;;;;;;;;;-3.35;77.84;101364.25;5099443;28;1035;-82
2022/03/08 03:58:50;;;;;;;;;;;;;;;-3.39;78.06;101365.56;5061998;28;1407;-85
2022/03/08 04:01:15;;;;;;;;;;;;;;;-3.35;78.05;101369.59;5063681;28;2081;-82
2022/03/08 04:03:40;;;;;;;;;;;;;;;-3.31;77.88;101378.13;5100172;28;1947;-84
2022/03/08 04:06:07;;;;;;;;;;;;;;;-3.35;78.08;101382.16;5099681;28;1348;-82
2022/03/08 04:08:32;;;;;;;;;;;;;;;-3.26;78.11;101381.13;5077929;28;1538;-83
2022/03/08 04:10:57;;;;;;;;;;;;;;;-3.33;78.18;101388.19;5093471;28;1543;-83
2022/03/08 04:13:23;;;;;;;;;;;;;;;-3.56;77.80;101383.47;5082563;28;940;-83
2022/03/08 04:15:48;;;;;;;;;;;;;;;-3.77;77.95;101390.34;5081461;28;1328;-83
2022/03/08 04:18:13;;;;;;;;;;;;;;;-3.56;78.40;101386.16;5081756;28;1220;-81
2022/03/08 04:20:38;;;;;;;;;;;;;;;-3.48;78.17;101378.13;5100289;28;1097;-84
2022/03/08 04:23:03;;;;;;;;;;;;;;;-3.50;78.04;101371.28;5079910;28;1965;-83
2022/03/08 04:25:29;;;;;;;;;;;;;;;-3.54;78.13;101369.94;5080659;28;1261;-84
2022/03/08 04:27:54;;;;;;;;;;;;;;;-3.66;78.04;101369.47;5067874;28;1400;-84
2022/03/08 04:30:19;;;;;;;;;;;;;;;-3.58;78.36;101363.28;5086460;28;1359;-85
2022/03/08 04:32:45;;;;;;;;;;;;;;;-3.55;78.16;101363.75;5098130;28;983;-84
2022/03/08 04:35:10;;;;;;;;;;;;;;;-3.45;78.17;101368.94;5072717;28;1692;-85
2022/03/08 04:37:35;;;;;;;;;;;;;;;-3.42;78.01;101373.13;5084451;28;1285;-84
2022/03/08 04:40:00;;;;;;;;;;;;;;;-3.52;78.14;101368.78;5078384;28;1506;-83
2022/03/08 04:42:26;;;;;;;;;;;;;;;-3.55;78.04;101368.25;5090056;28;1898;-84
2022/03/08 04:44:51;;;;;;;;;;;;;;;-3.77;77.89;101364.44;5079216;28;1284;-84
2022/03/08 04:47:16;;;;;;;;;;;;;;;-3.71;77.96;101373.63;5078574;28;1288;-85
2022/03/08 04:49:41;;;;;;;;;;;;;;;-3.70;78.31;101368.09;5062617;28;1609;-84
2022/03/08 04:52:06;;;;;;;;;;;;;;;-3.68;77.97;101368.78;5084781;28;1324;-83
2022/03/08 04:54:31;;;;;;;;;;;;;;;-3.69;77.97;101376.97;5075763;28;1462;-84
2022/03/08 04:56:57;;;;;;;;;;;;;;;-3.72;78.32;101370.09;5081022;28;1299;-83
2022/03/08 04:59:22;;;;;;;;;;;;;;;-3.76;78.25;101368.78;5078638;28;951;-84
2022/03/08 05:01:49;;;;;;;;;;;;;;;-3.71;78.02;101368.25;5076702;28;1500;-84
2022/03/08 05:04:14;;;;;;;;;;;;;;;-3.78;77.93;101373.44;5094385;28;1944;-83
2022/03/08 05:06:39;;;;;;;;;;;;;;;-3.71;78.09;101374.44;5078885;28;1052;-84
2022/03/08 05:09:04;;;;;;;;;;;;;;;-3.95;77.97;101377.09;5065396;28;1406;-84
2022/03/08 05:11:29;;;;;;;;;;;;;;;-3.91;78.30;101370.41;5074445;28;1415;-84
2022/03/08 05:13:54;;;;;;;;;;;;;;;-3.98;78.54;101377.44;5077854;28;1742;-83
2022/03/08 05:16:20;;;;;;;;;;;;;;;-3.92;78.48;101380.31;5063125;28;964;-85
2022/03/08 05:18:45;;;;;;;;;;;;;;;-4.05;78.36;101379.94;5082891;28;1275;-84
2022/03/08 05:21:10;;;;;;;;;;;;;;;-4.18;78.56;101382.25;5082182;28;1231;-84
2022/03/08 05:23:35;;;;;;;;;;;;;;;-4.00;79.05;101382.97;5100290;28;1897;-84
2022/03/08 05:26:00;;;;;;;;;;;;;;;-3.78;79.02;101394.84;5099576;28;1628;-83
2022/03/08 05:28:25;;;;;;;;;;;;;;;-3.71;78.69;101390.50;5081412;28;1342;-84
2022/03/08 05:30:51;;;;;;;;;;;;;;;-3.62;78.41;101384.16;5080948;28;1601;-83
2022/03/08 05:33:16;;;;;;;;;;;;;;;-3.53;78.60;101385.84;5092061;28;1202;-84
2022/03/08 05:35:41;;;;;;;;;;;;;;;-3.59;78.21;101383.84;5100251;28;709;-84
2022/03/08 05:38:07;;;;;;;;;;;;;;;-3.68;78.28;101389.34;5092655;28;1261;-84
2022/03/08 05:40:33;;;;;;;;;;;;;;;-3.77;78.69;101385.81;5082365;28;1497;-84
2022/03/08 05:43:00;;;;;;;;;;;;;;;-3.60;78.44;101386.66;5080549;28;1957;-84
2022/03/08 05:45:25;;;;;;;;;;;;;;;-3.55;78.22;101384.31;5098568;28;1072;-87
2022/03/08 05:47:51;;;;;;;;;;;;;;;-3.74;78.41;101373.97;5098838;28;1526;-85
2022/03/08 05:50:16;;;;;;;;;;;;;;;-3.81;78.19;101385.31;5076006;28;1340;-86
2022/03/08 05:52:41;;;;;;;;;;;;;;;-3.83;78.38;101386.50;5078020;28;1383;-87
2022/03/08 05:55:06;;;;;;;;;;;;;;;-3.75;78.41;101385.66;5089651;28;1480;-86
2022/03/08 05:57:32;;;;;;;;;;;;;;;-3.72;78.28;101398.69;5093662;28;1437;-85
2022/03/08 05:59:57;;;;;;;;;;;;;;;-3.87;77.76;101394.00;5078239;28;1562;-86
2022/03/08 06:02:22;;;;;;;;;;;;;;;-3.97;78.21;101385.28;5097947;28;1956;-85
2022/03/08 06:04:47;;;;;;;;;;;;;;;-3.84;78.27;101388.34;5086809;28;1247;-86
2022/03/08 06:07:12;;;;;;;;;;;;;;;-3.74;77.98;101401.53;5077690;28;1367;-85
2022/03/08 06:09:38;;;;;;;;;;;;;;;-3.73;78.36;101392.50;5086753;28;1182;-85
2022/03/08 06:12:03;;;;;;;;;;;;;;;-3.70;77.96;101389.50;5079477;28;1340;-86
2022/03/08 06:14:28;;;;;;;;;;;;;;;-3.91;78.03;101398.00;5088881;28;1498;-85
2022/03/08 06:16:53;;;;;;;;;;;;;;;-3.77;78.17;101393.84;5085099;28;1359;-85
2022/03/08 06:19:18;;;;;;;;;;;;;;;-3.71;77.90;101395.84;5081365;28;1271;-85
2022/03/08 06:21:44;;;;;;;;;;;;;;;-3.77;77.96;101404.56;5083065;28;1295;-85
2022/03/08 06:24:11;;;;;;;;;;;;;;;-3.77;78.09;101395.69;5079291;28;1929;-86
2022/03/08 06:26:36;;;;;;;;;;;;;;;-3.62;78.08;101400.22;5079135;28;1203;-84
2022/03/08 06:29:01;;;;;;;;;;;;;;;-3.73;77.77;101395.19;5081299;28;1314;-85
2022/03/08 06:31:26;;;;;;;;;;;;;;;-3.78;78.02;101397.53;5080525;28;1336;-85
2022/03/08 06:33:51;;;;;;;;;;;;;;;-3.66;78.03;101398.06;5080036;28;1008;-86
2022/03/08 06:36:16;;;;;;;;;;;;;;;-3.58;78.38;101406.91;5098020;28;971;-85
2022/03/08 06:38:41;;;;;;;;;;;;;;;-3.46;77.98;101397.53;5079548;28;1464;-86
2022/03/08 06:41:07;;;;;;;;;;;;;;;-3.36;78.12;101396.53;5079717;28;1198;-85
2022/03/08 06:43:32;;;;;;;;;;;;;;;-3.33;78.08;101401.56;5097815;28;1913;-86
2022/03/08 06:45:57;;;;;;;;;;;;;;;-3.32;78.15;101404.09;5079064;28;1155;-85
2022/03/08 06:48:23;;;;;;;;;;;;;;;-3.47;77.92;101411.06;5079264;28;1299;-85
2022/03/08 06:50:48;;;;;;;;;;;;;;;-3.42;77.98;101405.25;5079119;28;1023;-85
2022/03/08 06:53:13;;;;;;;;;;;;;;;-3.24;78.36;101401.41;5079134;28;929;-85
2022/03/08 06:55:38;;;;;;;;;;;;;;;-3.16;78.31;101403.22;5079961;28;1206;-86
2022/03/08 06:58:03;;;;;;;;;;;;;;;-3.17;77.95;101404.22;5078817;28;1211;-85
2022/03/08 07:00:29;;;;;;;;;;;;;;;-3.15;77.87;101399.53;5078574;28;1218;-85
2022/03/08 07:02:54;;;;;;;;;;;;;;;-3.14;78.00;101403.88;5096637;28;1897;-86
2022/03/08 07:05:20;;;;;;;;;;;;;;;-3.06;78.04;101396.66;5078092;28;889;-86
2022/03/08 07:07:45;;;;;;;;;;;;;;;-2.97;77.86;101397.47;5077971;28;1217;-85
2022/03/08 07:10:10;;;;;;;;;;;;;;;-2.93;77.88;101403.34;5078318;28;818;-86
2022/03/08 07:12:35;;;;;;;;;;;;;;;-2.93;78.19;101395.31;5078080;28;1234;-85
2022/03/08 07:15:00;;;;;;;;;;;;;;;-2.80;77.99;101399.13;5077733;28;1280;-86
2022/03/08 07:17:26;;;;;;;;;;;;;;;-2.70;78.26;101396.25;5078200;28;1619;-85
2022/03/08 07:19:51;;;;;;;;;;;;;;;-2.62;78.34;101398.91;5096253;28;996;-85
2022/03/08 07:22:17;;;;;;;;;;;;;;;-2.60;78.43;101394.22;5078050;28;817;-86
2022/03/08 07:24:42;;;;;;;;;;;;;;;-2.68;78.38;101394.25;5096527;28;1910;-85
2022/03/08 07:27:08;;;;;;;;;;;;;;;-2.58;78.91;101383.31;5095948;28;1212;-85
2022/03/08 07:29:33;;;;;;;;;;;;;;;-2.42;78.75;101383.25;5095595;28;1019;-87
2022/03/08 07:31:58;;;;;;;;;;;;;;;-2.39;78.67;101386.44;5056282;28;1356;-84
2022/03/08 07:34:24;;;;;;;;;;;;;;;-2.26;78.73;101387.69;5075990;28;746;-85
2022/03/08 07:36:49;;;;;;;;;;;;;;;-2.20;78.97;101382.47;5076240;28;1031;-85
2022/03/08 07:39:14;;;;;;;;;;;;;;;-2.18;79.11;101380.44;5057992;28;1340;-85
2022/03/08 07:41:39;;;;;;;;;;;;;;;-2.14;78.96;101373.72;5057902;28;1223;-85
2022/03/08 07:44:04;;;;;;;;;;;;;;;-2.12;79.17;101377.06;5057258;28;1905;-84
2022/03/08 07:46:30;;;;;;;;;;;;;;;-2.13;78.87;101375.41;5057367;28;1251;-84
2022/03/08 07:48:55;;;;;;;;;;;;;;;-2.06;79.41;101372.84;5074572;28;1220;-84
2022/03/08 07:51:20;;;;;;;;;;;;;;;-1.96;79.33;101378.81;5074343;28;1006;-84
2022/03/08 07:53:45;;;;;;;;;;;;;;;-2.07;79.25;101350.56;5056578;28;1199;-83
2022/03/08 07:56:10;;;;;;;;;;;;;;;-1.84;79.17;101376.56;5057439;28;1219;-84
2022/03/08 07:58:38;;;;;;;;;;;;;;;-1.81;79.28;101370.84;5057182;28;1322;-86
2022/03/08 08:01:03;;;;;;;;;;;;;;;-1.77;79.14;101370.28;5057549;28;1401;-84
2022/03/08 08:03:28;;;;;;;;;;;;;;;-1.75;79.13;101372.81;5057600;28;1898;-85
2022/03/08 08:05:54;;;;;;;;;;;;;;;-1.73;79.46;101365.41;5075777;28;672;-86
2022/03/08 08:08:19;;;;;;;;;;;;;;;-1.66;79.07;101375.25;5057454;28;1255;-84
2022/03/08 08:10:44;;;;;;;;;;;;;;;-1.63;79.34;101382.97;5057409;28;1230;-84
2022/03/08 08:13:09;;;;;;;;;;;;;;;-1.56;79.13;101381.22;5075502;28;980;-84
2022/03/08 08:15:36;;;;;;;;;;;;;;;-1.49;79.02;101384.00;5058247;28;700;-85
2022/03/08 08:18:01;;;;;;;;;;;;;;;-1.46;78.82;101386.34;5057746;28;1342;-84
2022/03/08 08:20:27;;;;;;;;;;;;;;;-1.40;78.88;101388.28;5076021;28;1026;-85
2022/03/08 08:22:52;;;;;;;;;;;;;;;-1.36;78.67;101386.91;5058457;28;1902;-85
2022/03/08 08:25:17;;;;;;;;;;;;;;;-1.34;78.90;101378.69;5058144;28;1283;-85
2022/03/08 08:27:42;;;;;;;;;;;;;;;-1.31;78.94;101381.84;5058932;28;1359;-86
2022/03/08 08:30:10;;;;;;;;;;;;;;;-1.26;78.72;101386.66;5058664;28;1272;-83
2022/03/08 08:32:35;;;;;;;;;;;;;;;-1.24;78.77;101387.31;5076653;28;1085;-84
2022/03/08 08:35:00;;;;;;;;;;;;;;;-1.20;78.88;101385.94;5057911;28;1217;-85
2022/03/08 08:37:26;;;;;;;;;;;;;;;-1.16;78.92;101384.56;5077936;28;1293;-85
2022/03/08 08:39:51;;;;;;;;;;;;;;;-1.11;78.72;101389.41;5069335;28;1200;-86
2022/03/08 08:42:16;;;;;;;;;;;;;;;-1.07;78.96;101383.47;5088892;28;1019;-85
2022/03/08 08:44:41;;;;;;;;;;;;;;;-1.02;78.88;101381.03;5088332;28;1886;-85
2022/03/08 08:47:06;;;;;;;;;;;;;;;-0.98;78.46;101374.31;5078236;28;1272;-84
2022/03/08 08:49:31;;;;;;;;;;;;;;;-0.91;78.71;101377.09;5078252;28;920;-85
2022/03/08 08:51:57;;;;;;;;;;;;;;;-0.87;78.79;101376.53;5060304;28;718;-86
2022/03/08 08:54:22;;;;;;;;;;;;;;;-0.82;78.65;101378.66;5077104;28;1224;-84
2022/03/08 08:56:47;;;;;;;;;;;;;;;-0.73;78.38;101374.88;5060245;28;1244;-86
2022/03/08 08:59:13;;;;;;;;;;;;;;;-0.69;78.32;101373.50;5076313;28;1494;-84
2022/03/08 09:01:38;;;;;;;;;;;;;;;-0.63;78.53;101372.75;5077799;28;868;-83
2022/03/08 09:04:03;;;;;;;;;;;;;;;-0.56;78.27;101370.97;5078538;28;1948;-83
2022/03/08 09:06:29;;;;;;;;;;;;;;;-0.42;78.26;101367.44;5077484;28;1228;-82
2022/03/08 09:08:56;;;;;;;;;;;;;;;-0.36;78.04;101373.09;5060552;28;1251;-82
2022/03/08 09:11:21;;;;;;;;;;;;;;;-0.32;78.03;101367.13;5077341;28;1336;-83
2022/03/08 09:13:46;;;;;;;;;;;;;;;-0.28;77.94;101364.91;5077176;28;1345;-82
2022/03/08 09:16:14;;;;;;;;;;;;;;;-0.21;77.97;101366.66;5078984;28;1077;-82
2022/03/08 09:18:39;;;;;;;;;;;;;;;-0.12;77.89;101365.53;5078972;28;1299;-83
2022/03/08 09:21:05;;;;;;;;;;;;;;;-0.03;77.61;101342.03;5060926;28;821;-83
2022/03/08 09:23:30;;;;;;;;;;;;;;;0.05;77.58;101347.28;5078503;28;1957;-84
2022/03/08 09:25:55;;;;;;;;;;;;;;;0.09;77.53;101340.47;5076804;28;1030;-83
2022/03/08 09:28:20;;;;;;;;;;;;;;;0.17;77.30;101342.25;5059938;28;1296;-84
2022/03/08 09:30:48;;;;;;;;;;;;;;;0.27;77.25;101330.09;5077887;28;991;-84
2022/03/08 09:33:13;;;;;;;;;;;;;;;0.31;76.97;101319.78;5059140;28;1239;-85
2022/03/08 09:35:38;;;;;;;;;;;;;;;0.37;76.67;101316.31;5059640;28;884;-84
2022/03/08 09:38:03;;;;;;;;;;;;;;;0.45;76.67;101315.34;5077086;28;1283;-84
2022/03/08 09:40:32;;;;;;;;;;;;;;;0.54;76.62;101309.63;5076748;28;1346;-84
2022/03/08 09:42:58;;;;;;;;;;;;;;;0.61;76.32;101306.97;5077803;28;1898;-84
2022/03/08 09:45:23;;;;;;;;;;;;;;;0.65;76.42;101311.78;5076460;28;1231;-85
2022/03/08 09:47:49;;;;;;;;;;;;;;;0.80;76.16;101311.69;5076552;28;1187;-85
2022/03/08 09:50:14;;;;;;;;;;;;;;;0.85;75.99;101297.63;5077453;28;944;-86
2022/03/08 09:52:40;;;;;;;;;;;;;;;0.86;75.85;101299.28;5059800;28;1211;-85
2022/03/08 09:55:06;;;;;;;;;;;;;;;0.83;75.88;101305.91;5059633;28;1165;-85
2022/03/08 09:57:31;;;;;;;;;;;;;;;0.91;75.92;101299.53;5059867;28;1247;-85
2022/03/08 09:59:56;;;;;;;;;;;;;;;0.96;75.73;101295.22;5077614;28;860;-85
2022/03/08 10:02:25;;;;;;;;;;;;;;;1.11;75.57;101290.50;5075923;28;969;-86
2022/03/08 10:05:03;;;;;;;;;;;;;;;1.18;75.36;101292.44;5076002;28;1893;-85
2022/03/08 10:07:28;;;;;;;;;;;;;;;1.27;75.17;101292.06;5076823;28;1272;-85
2022/03/08 10:09:55;;;;;;;;;;;;;;;1.29;75.16;101284.59;5077453;28;875;-85
2022/03/08 10:12:21;;;;;;;;;;;;;;;1.37;75.09;101295.22;5077027;28;912;-85
2022/03/08 10:14:46;;;;;;;;;;;;;;;1.40;74.97;101294.81;5077319;28;871;-85
2022/03/08 10:17:31;;;;;;;;;;;;;;;1.51;74.50;101288.84;5077628;28;1201;-85
2022/03/08 10:19:56;;;;;;;;;;;;;;;1.51;74.76;101293.41;5059329;28;1218;-85
2022/03/08 10:22:25;;;;;;;;;;;;;;;1.60;74.44;101283.28;5059197;28;1180;-86
2022/03/08 10:24:51;;;;;;;;;;;;;;;1.65;74.00;101280.78;5058829;28;1890;-85
2022/03/08 10:27:16;;;;;;;;;;;;;;;1.71;74.11;101282.66;5076727;28;1247;-85
2022/03/08 10:29:42;;;;;;;;;;;;;;;1.80;73.50;101284.16;5077648;28;899;-85
2022/03/08 10:32:08;;;;;;;;;;;;;;;1.96;73.34;101272.16;5058783;28;1348;-85
2022/03/08 10:34:34;;;;;;;;;;;;;;;2.00;72.75;101276.09;5077215;28;872;-86
2022/03/08 10:36:59;;;;;;;;;;;;;;;2.13;72.75;101268.00;5059052;28;1286;-85
2022/03/08 10:39:25;;;;;;;;;;;;;;;2.14;72.00;101266.97;5059111;28;1035;-84
2022/03/08 10:41:52;;;;;;;;;;;;;;;2.18;71.41;101263.66;5059111;28;1377;-85
2022/03/08 10:44:30;;;;;;;;;;;;;;;2.28;70.75;101261.38;5059405;28;1955;-85
2022/03/08 10:46:59;;;;;;;;;;;;;;;2.28;69.81;101264.09;5077110;28;832;-85
2022/03/08 10:49:24;;;;;;;;;;;;;;;2.30;69.46;101263.06;5058696;28;1334;-85
2022/03/08 10:51:57;;;;;;;;;;;;;;;2.33;69.04;101263.44;5059040;28;1164;-84
2022/03/08 10:54:24;;;;;;;;;;;;;;;2.38;68.13;101258.28;5076480;28;1214;-85
2022/03/08 10:56:49;;;;;;;;;;;;;;;2.44;67.97;101260.13;5058415;28;1232;-85
2022/03/08 10:59:15;;;;;;;;;;;;;;;2.50;67.40;101251.19;5075695;28;1259;-85
2022/03/08 11:01:40;;;;;;;;;;;;;;;2.60;66.49;101248.91;5075759;28;936;-84
2022/03/08 11:04:15;;;;;;;;;;;;;;;2.57;65.98;101248.47;5074836;28;1905;-85
2022/03/08 11:06:41;;;;;;;;;;;;;;;2.61;66.03;101247.03;5058531;28;1211;-85
2022/03/08 11:09:06;;;;;;;;;;;;;;;2.64;65.15;101255.53;5076896;28;1246;-85
2022/03/08 11:11:32;;;;;;;;;;;;;;;2.76;65.23;101238.69;5077716;28;832;-86
2022/03/08 11:13:57;;;;;;;;;;;;;;;2.79;64.35;101244.50;5077395;28;877;-86
2022/03/08 11:16:23;;;;;;;;;;;;;;;2.81;63.52;101247.81;5058553;28;1043;-84
2022/03/08 11:18:49;;;;;;;;;;;;;;;3.00;63.65;101243.41;5075660;28;1279;-84
2022/03/08 11:21:15;;;;;;;;;;;;;;;3.01;63.30;101237.78;5059314;28;1253;-85
2022/03/08 11:23:42;;;;;;;;;;;;;;;3.02;62.75;101228.63;5058983;28;2006;-84
2022/03/08 11:26:09;;;;;;;;;;;;;;;3.12;62.12;101230.88;5077312;28;1062;-84
2022/03/08 11:28:34;;;;;;;;;;;;;;;3.08;61.21;101226.09;5058570;28;1348;-85
2022/03/08 11:30:59;;;;;;;;;;;;;;;3.07;61.41;101224.44;5076946;28;1003;-87
2022/03/08 11:33:36;;;;;;;;;;;;;;;3.14;61.29;101214.44;5075591;28;1011;-85
2022/03/08 11:36:01;;;;;;;;;;;;;;;3.23;60.92;101213.16;5059556;28;1228;-85
2022/03/08 11:38:26;;;;;;;;;;;;;;;3.17;60.16;101214.00;5060593;28;1362;-85
2022/03/08 11:40:53;;;;;;;;;;;;;;;3.18;60.11;101205.69;5078281;28;1062;-86
2022/03/08 11:43:19;;;;;;;;;;;;;;;3.20;60.11;101202.75;5061182;28;1894;-86
2022/03/08 11:45:48;;;;;;;;;;;;;;;3.21;60.07;101204.44;5060333;28;1220;-85
2022/03/08 11:48:14;;;;;;;;;;;;;;;3.26;59.48;101201.88;5075713;28;1224;-85
2022/03/08 11:50:44;;;;;;;;;;;;;;;3.33;59.11;101195.41;5058819;28;1226;-85
2022/03/08 11:53:13;;;;;;;;;;;;;;;3.43;58.41;101193.06;5058844;28;1466;-85
2022/03/08 11:55:38;;;;;;;;;;;;;;;3.54;58.43;101193.44;5078512;28;806;-83
2022/03/08 11:58:07;;;;;;;;;;;;;;;3.45;58.46;101190.16;5079413;28;1217;-83
2022/03/08 12:00:36;;;;;;;;;;;;;;;3.42;58.43;101185.97;5059780;28;1339;-84
2022/03/08 12:03:07;;;;;;;;;;;;;;;3.40;58.21;101188.06;5061369;28;1890;-85
2022/03/08 12:05:38;;;;;;;;;;;;;;;3.54;58.39;101180.72;5061775;28;1169;-86
2022/03/08 12:08:21;;;;;;;;;;;;;;;3.66;58.41;101181.66;5077784;28;1305;-86
2022/03/08 12:10:47;;;;;;;;;;;;;;;3.74;57.95;101183.31;5058880;28;1267;-85
2022/03/08 12:13:16;;;;;;;;;;;;;;;3.84;57.64;101180.09;5075786;28;912;-84
2022/03/08 12:16:00;;;;;;;;;;;;;;;3.88;57.27;101179.44;5057961;28;1307;-84
2022/03/08 12:18:32;;;;;;;;;;;;;;;4.02;57.14;101180.16;5057672;28;1258;-86
2022/03/08 12:21:16;;;;;;;;;;;;;;;4.07;56.89;101175.75;5078165;28;1015;-85
2022/03/08 12:23:50;;;;;;;;;;;;;;;4.06;56.53;101174.09;5077978;28;1935;-87
2022/03/08 12:26:29;;;;;;;;;;;;;;;4.12;56.08;101175.91;5059368;28;1184;-85
2022/03/08 12:29:10;;;;;;;;;;;;;;;4.17;56.04;101178.78;5057829;28;1342;-85
2022/03/08 12:31:54;;;;;;;;;;;;;;;4.41;55.80;101174.41;5063433;28;1351;-85
2022/03/08 12:34:38;;;;;;;;;;;;;;;4.40;55.47;101174.63;5077046;28;1003;-86
2022/03/08 12:37:07;;;;;;;;;;;;;;;4.53;55.45;101171.78;5056747;28;1348;-85
2022/03/08 12:40:02;;;;;;;;;;;;;;;4.59;55.04;101170.91;5056512;28;1207;-84
2022/03/08 12:42:32;;;;;;;;;;;;;;;4.71;55.24;101165.53;5059610;28;1287;-87
2022/03/08 12:45:03;;;;;;;;;;;;;;;4.77;54.82;101170.88;5058342;28;1933;-85